createdAt,value
2018-11-23T00:02:03.637Z,44.10
2018-11-23T00:04:32.033Z,43.00
2018-11-23T00:07:00.348Z,43.97
2018-11-23T00:09:28.661Z,44.70
2018-11-23T00:11:57.029Z,46.03
2018-11-23T00:14:25.342Z,44.70
2018-11-23T00:16:53.647Z,45.03
2018-11-23T00:19:21.985Z,45.17
2018-11-23T00:21:50.297Z,44.53
2018-11-23T00:24:18.592Z,45.73
2018-11-23T00:26:46.890Z,42.87
2018-11-23T00:29:15.197Z,43.07
2018-11-23T00:31:43.519Z,46.13
2018-11-23T00:34:11.828Z,44.63
2018-11-23T00:36:40.133Z,45.27
2018-11-23T00:39:08.578Z,46.50
2018-11-23T00:41:37.028Z,45.67
2018-11-23T00:44:05.934Z,45.70
2018-11-23T00:46:34.356Z,45.00
2018-11-23T00:49:02.645Z,46.93
2018-11-23T00:51:30.977Z,44.83
2018-11-23T00:53:59.376Z,45.53
2018-11-23T00:56:27.777Z,45.23
2018-11-23T00:58:56.074Z,47.03
2018-11-23T01:01:24.466Z,46.10
2018-11-23T01:03:52.829Z,46.03
2018-11-23T01:06:21.157Z,45.03
2018-11-23T01:08:49.457Z,45.33
2018-11-23T01:11:17.788Z,46.17
2018-11-23T01:13:46.091Z,46.90
2018-11-23T01:16:14.408Z,46.07
2018-11-23T01:18:42.666Z,44.77
2018-11-23T01:21:10.966Z,45.40
2018-11-23T01:23:39.283Z,43.47
2018-11-23T01:26:07.607Z,46.70
2018-11-23T01:28:35.954Z,44.73
2018-11-23T01:31:04.269Z,46.30
2018-11-23T01:33:32.584Z,45.53
2018-11-23T01:36:00.881Z,45.43
2018-11-23T01:38:29.209Z,45.40
2018-11-23T01:40:57.574Z,46.37
2018-11-23T01:43:25.876Z,46.87
2018-11-23T01:45:54.234Z,45.63
2018-11-23T01:48:22.569Z,46.20
2018-11-23T01:50:50.901Z,46.37
2018-11-23T01:53:19.166Z,47.93
2018-11-23T01:55:47.517Z,44.07
2018-11-23T01:58:15.821Z,45.03
2018-11-23T02:00:44.130Z,45.73
2018-11-23T02:03:12.449Z,45.17
2018-11-23T02:05:40.789Z,49.43
2018-11-23T02:08:09.136Z,47.83
2018-11-23T02:10:37.453Z,48.43
2018-11-23T02:13:05.886Z,46.53
2018-11-23T02:15:34.205Z,48.17
2018-11-23T02:18:02.508Z,46.43
2018-11-23T02:20:30.825Z,45.23
2018-11-23T02:22:59.104Z,47.63
2018-11-23T02:25:27.417Z,48.03
2018-11-23T02:27:55.722Z,47.43
2018-11-23T02:30:25.066Z,46.33
2018-11-23T02:32:53.566Z,46.17
2018-11-23T02:35:21.858Z,46.97
2018-11-23T02:37:50.218Z,46.63
2018-11-23T02:40:19.485Z,46.30
2018-11-23T02:42:47.833Z,45.40
2018-11-23T02:45:17.892Z,46.97
2018-11-23T02:47:46.859Z,46.27
2018-11-23T02:50:15.230Z,44.90
2018-11-23T02:52:43.969Z,46.70
2018-11-23T02:55:13.465Z,45.17
2018-11-23T02:57:41.812Z,46.87
2018-11-23T03:00:12.173Z,45.97
2018-11-23T03:02:40.481Z,46.13
2018-11-23T03:05:10.159Z,46.77
2018-11-23T03:07:38.584Z,45.50
2018-11-23T03:10:08.057Z,46.67
2018-11-23T03:12:36.605Z,46.43
2018-11-23T03:15:05.357Z,45.40
2018-11-23T03:17:33.634Z,45.10
2018-11-23T03:20:01.953Z,46.17
2018-11-23T03:22:30.257Z,45.63
2018-11-23T03:24:58.561Z,47.30
2018-11-23T03:27:26.865Z,44.93
2018-11-23T03:29:55.180Z,46.03
2018-11-23T03:32:23.485Z,46.30
2018-11-23T03:34:51.870Z,43.30
2018-11-23T03:37:20.114Z,46.17
2018-11-23T03:39:48.387Z,46.63
2018-11-23T03:42:16.661Z,44.97
2018-11-23T03:44:44.898Z,44.53
2018-11-23T03:47:13.172Z,45.67
2018-11-23T03:49:41.436Z,45.97
2018-11-23T03:52:09.700Z,45.73
2018-11-23T03:54:39.031Z,45.43
2018-11-23T03:57:07.308Z,44.27
2018-11-23T03:59:35.548Z,44.97
2018-11-23T04:02:03.868Z,44.77
2018-11-23T04:04:32.139Z,45.13
2018-11-23T04:07:00.400Z,45.37
2018-11-23T04:09:28.675Z,45.10
2018-11-23T04:11:56.960Z,45.03
2018-11-23T04:14:25.187Z,44.10
2018-11-23T04:16:53.591Z,45.33
2018-11-23T04:19:21.839Z,46.50
2018-11-23T04:21:50.098Z,46.50
2018-11-23T04:24:18.330Z,47.57
2018-11-23T04:26:46.652Z,46.43
2018-11-23T04:29:14.886Z,45.40
2018-11-23T04:31:43.146Z,45.77
2018-11-23T04:34:11.416Z,46.60
2018-11-23T04:36:39.675Z,45.00
2018-11-23T04:39:08.397Z,46.30
2018-11-23T04:41:36.679Z,46.13
2018-11-23T04:44:05.161Z,44.80
2018-11-23T04:46:33.416Z,45.23
2018-11-23T04:49:01.679Z,46.07
2018-11-23T04:51:30.017Z,45.63
2018-11-23T04:53:58.262Z,45.27
2018-11-23T04:56:26.602Z,45.10
2018-11-23T04:58:54.884Z,44.07
2018-11-23T05:01:23.171Z,43.17
2018-11-23T05:03:51.606Z,43.00
2018-11-23T05:06:19.890Z,42.73
2018-11-23T05:08:48.210Z,43.17
2018-11-23T05:11:16.508Z,46.73
2018-11-23T05:13:44.890Z,42.83
2018-11-23T05:16:13.143Z,43.70
2018-11-23T05:18:41.470Z,42.53
2018-11-23T05:21:09.731Z,44.03
2018-11-23T05:23:38.017Z,42.43
2018-11-23T05:26:06.575Z,42.70
2018-11-23T05:28:34.855Z,43.27
2018-11-23T05:31:03.231Z,42.60
2018-11-23T05:33:32.639Z,42.50
2018-11-23T05:36:00.935Z,41.43
2018-11-23T05:38:29.175Z,41.53
2018-11-23T05:40:57.435Z,40.13
2018-11-23T05:43:25.683Z,42.10
2018-11-23T05:45:53.934Z,41.40
2018-11-23T05:48:26.803Z,40.27
2018-11-23T05:50:50.482Z,41.63
2018-11-23T05:53:19.678Z,40.40
2018-11-23T05:55:47.979Z,40.20
2018-11-23T05:58:27.303Z,42.87
2018-11-23T06:00:55.556Z,40.77
2018-11-23T06:03:23.804Z,39.27
2018-11-23T06:05:52.071Z,41.63
2018-11-23T06:08:20.359Z,39.83
2018-11-23T06:10:48.678Z,39.37
2018-11-23T06:13:16.922Z,40.43
2018-11-23T06:15:45.831Z,41.00
2018-11-23T06:18:13.446Z,40.73
2018-11-23T06:20:41.699Z,40.97
2018-11-23T06:23:10.014Z,40.57
2018-11-23T06:25:43.446Z,41.83
2018-11-23T06:28:11.716Z,41.57
2018-11-23T06:30:39.976Z,41.83
2018-11-23T06:33:37.354Z,41.10
2018-11-23T06:36:05.706Z,41.60
2018-11-23T06:38:34.023Z,40.23
2018-11-23T06:41:02.311Z,42.70
2018-11-23T06:43:30.629Z,41.20
2018-11-23T06:45:59.847Z,40.97
2018-11-23T06:48:28.241Z,40.20
2018-11-23T06:50:56.751Z,41.37
2018-11-23T06:53:25.198Z,42.30
2018-11-23T06:55:53.503Z,42.57
2018-11-23T06:58:21.811Z,41.20
2018-11-23T07:00:50.059Z,40.33
2018-11-23T07:03:18.343Z,40.77
2018-11-23T07:05:46.579Z,40.30
2018-11-23T07:08:14.849Z,41.97
2018-11-23T07:10:43.155Z,41.43
2018-11-23T07:13:11.447Z,40.60
2018-11-23T07:15:39.987Z,40.00
2018-11-23T07:18:08.833Z,38.23
2018-11-23T07:20:37.123Z,40.00
2018-11-23T07:23:05.510Z,41.73
2018-11-23T07:25:33.758Z,39.67
2018-11-23T07:28:02.024Z,40.27
2018-11-23T07:30:30.707Z,39.07
2018-11-23T07:32:58.968Z,40.90
2018-11-23T07:35:27.248Z,38.83
2018-11-23T07:37:55.510Z,42.10
2018-11-23T07:40:38.019Z,39.93
2018-11-23T07:43:06.291Z,41.23
2018-11-23T07:45:34.539Z,39.77
2018-11-23T07:48:02.823Z,39.97
2018-11-23T07:50:31.071Z,40.07
2018-11-23T07:52:59.334Z,40.67
2018-11-23T07:55:27.582Z,39.47
2018-11-23T07:57:55.856Z,39.00
2018-11-23T08:00:24.839Z,37.30
2018-11-23T08:02:53.099Z,37.67
2018-11-23T08:05:21.578Z,38.63
2018-11-23T08:07:49.899Z,38.47
2018-11-23T08:10:17.371Z,36.47
2018-11-23T08:12:46.935Z,38.30
2018-11-23T08:15:19.874Z,38.27
2018-11-23T08:17:48.122Z,37.30
2018-11-23T08:20:18.682Z,36.93
2018-11-23T08:22:47.162Z,37.47
2018-11-23T08:25:16.563Z,36.73
2018-11-23T08:27:45.762Z,38.40
2018-11-23T08:30:19.199Z,39.63
2018-11-23T08:32:47.599Z,36.60
2018-11-23T08:35:16.025Z,37.97
2018-11-23T08:37:44.379Z,37.73
2018-11-23T08:40:16.352Z,38.00
2018-11-23T08:42:45.475Z,37.07
2018-11-23T08:45:16.123Z,38.07
2018-11-23T08:47:44.386Z,35.63
2018-11-23T08:50:16.235Z,37.57
2018-11-23T08:52:44.470Z,35.77
2018-11-23T08:55:13.597Z,38.07
2018-11-23T08:57:42.183Z,38.27
2018-11-23T09:00:14.600Z,37.73
2018-11-23T09:02:43.767Z,36.70
2018-11-23T09:05:12.004Z,37.80
2018-11-23T09:07:40.290Z,36.60
2018-11-23T09:10:11.352Z,36.33
2018-11-23T09:12:39.603Z,35.53
2018-11-23T09:15:09.335Z,38.30
2018-11-23T09:17:37.602Z,39.47
2018-11-23T09:20:07.280Z,36.97
2018-11-23T09:22:35.508Z,37.50
2018-11-23T09:25:03.874Z,38.17
2018-11-23T09:27:32.171Z,36.70
2018-11-23T09:30:00.424Z,36.10
2018-11-23T09:32:28.662Z,37.57
2018-11-23T09:34:56.965Z,38.53
2018-11-23T09:37:25.191Z,37.87
2018-11-23T09:39:53.495Z,35.97
2018-11-23T09:42:21.759Z,36.87
2018-11-23T09:44:50.094Z,36.37
2018-11-23T09:47:18.351Z,35.50
2018-11-23T09:49:46.607Z,36.10
2018-11-23T09:52:14.867Z,35.03
2018-11-23T09:54:43.130Z,35.80
2018-11-23T09:57:11.407Z,35.37
2018-11-23T09:59:39.690Z,35.93
2018-11-23T10:02:07.910Z,34.50
2018-11-23T10:04:36.142Z,34.77
2018-11-23T10:07:04.413Z,35.23
2018-11-23T10:09:32.687Z,35.90
2018-11-23T10:12:00.959Z,35.70
2018-11-23T10:14:29.257Z,35.40
2018-11-23T10:16:57.487Z,33.90
2018-11-23T10:19:29.688Z,34.03
2018-11-23T10:21:57.946Z,34.70
2018-11-23T10:24:26.251Z,34.73
2018-11-23T10:26:54.462Z,34.50
2018-11-23T10:29:23.099Z,33.83
2018-11-23T10:31:51.379Z,33.93
2018-11-23T10:34:19.623Z,34.07
2018-11-23T10:36:47.897Z,33.00
2018-11-23T10:39:16.604Z,33.07
2018-11-23T10:41:44.942Z,34.80
2018-11-23T10:44:13.204Z,33.27
2018-11-23T10:46:41.621Z,33.57
2018-11-23T10:49:10.139Z,35.07
2018-11-23T10:51:38.366Z,31.80
2018-11-23T10:54:06.659Z,32.90
2018-11-23T10:56:34.990Z,32.60
2018-11-23T10:59:03.232Z,33.27
2018-11-23T11:01:36.983Z,31.80
2018-11-23T11:04:10.894Z,32.30
2018-11-23T11:06:44.512Z,32.83
2018-11-23T11:09:12.755Z,32.57
2018-11-23T11:11:41.491Z,32.57
2018-11-23T11:14:09.750Z,31.90
2018-11-23T11:16:38.036Z,31.67
2018-11-23T11:19:06.979Z,32.93
2018-11-23T11:21:35.364Z,33.20
2018-11-23T11:24:03.964Z,32.73
2018-11-23T11:26:32.203Z,33.30
2018-11-23T11:29:00.460Z,32.60
2018-11-23T11:31:29.068Z,33.67
2018-11-23T11:33:57.411Z,31.47
2018-11-23T11:36:25.667Z,30.63
2018-11-23T11:38:53.950Z,32.37
2018-11-23T11:41:22.227Z,29.70
2018-11-23T11:43:50.674Z,32.63
2018-11-23T11:46:18.911Z,32.33
2018-11-23T11:48:47.146Z,30.73
2018-11-23T11:51:17.680Z,32.37
2018-11-23T11:53:43.744Z,31.80
2018-11-23T11:56:11.973Z,33.10
2018-11-23T11:58:41.314Z,32.80
2018-11-23T12:01:09.575Z,31.03
2018-11-23T12:03:37.879Z,31.63
2018-11-23T12:06:06.214Z,30.37
2018-11-23T12:08:34.442Z,32.17
2018-11-23T12:11:02.728Z,30.87
2018-11-23T12:13:30.975Z,30.90
2018-11-23T12:15:59.242Z,30.03
2018-11-23T12:18:27.503Z,31.73
2018-11-23T12:20:55.779Z,31.43
2018-11-23T12:23:24.051Z,33.80
2018-11-23T12:25:56.296Z,34.77
2018-11-23T12:28:24.552Z,32.00
2018-11-23T12:30:52.814Z,34.77
2018-11-23T12:33:21.156Z,32.93
2018-11-23T12:35:49.420Z,32.63
2018-11-23T12:38:17.704Z,33.00
2018-11-23T12:40:45.938Z,31.03
2018-11-23T12:43:14.222Z,32.87
2018-11-23T12:45:42.478Z,32.33
2018-11-23T12:48:10.751Z,31.50
2018-11-23T12:50:39.021Z,31.53
2018-11-23T12:53:07.295Z,34.10
2018-11-23T12:55:35.607Z,33.93
2018-11-23T12:58:03.872Z,32.67
2018-11-23T13:00:32.116Z,33.30
2018-11-23T13:03:04.552Z,32.17
2018-11-23T13:05:33.762Z,32.83
2018-11-23T13:08:03.488Z,32.57
2018-11-23T13:10:32.056Z,33.60
2018-11-23T13:13:00.910Z,34.03
2018-11-23T13:15:29.256Z,33.07
2018-11-23T13:17:58.247Z,35.90
2018-11-23T13:20:26.597Z,33.60
2018-11-23T13:22:54.861Z,33.33
2018-11-23T13:25:24.627Z,32.10
2018-11-23T13:27:53.002Z,33.07
2018-11-23T13:30:25.854Z,33.37
2018-11-23T13:32:54.220Z,33.53
2018-11-23T13:35:22.488Z,32.67
2018-11-23T13:37:50.748Z,32.50
2018-11-23T13:40:21.239Z,33.77
2018-11-23T13:42:50.012Z,33.67
2018-11-23T13:45:19.711Z,34.63
2018-11-23T13:47:47.985Z,32.83
2018-11-23T13:50:17.589Z,31.07
2018-11-23T13:52:46.811Z,33.30
2018-11-23T13:55:15.102Z,33.40
2018-11-23T13:57:43.411Z,33.17
2018-11-23T14:00:14.876Z,33.33
2018-11-23T14:02:43.487Z,34.00
2018-11-23T14:05:13.411Z,33.20
2018-11-23T14:07:42.306Z,34.47
2018-11-23T14:10:12.592Z,32.00
2018-11-23T14:12:41.074Z,33.70
2018-11-23T14:15:12.522Z,32.20
2018-11-23T14:17:41.255Z,33.23
2018-11-23T14:20:11.290Z,33.60
2018-11-23T14:22:39.548Z,35.43
2018-11-23T14:25:09.203Z,32.43
2018-11-23T14:27:37.508Z,32.40
2018-11-23T14:30:08.912Z,34.83
2018-11-23T14:32:37.291Z,35.10
2018-11-23T14:35:05.974Z,34.27
2018-11-23T14:37:34.224Z,34.57
2018-11-23T14:40:02.471Z,35.73
2018-11-23T14:42:30.725Z,35.37
2018-11-23T14:44:58.982Z,35.20
2018-11-23T14:47:27.267Z,35.53
2018-11-23T14:49:55.527Z,35.63
2018-11-23T14:52:23.822Z,34.70
2018-11-23T14:54:52.103Z,36.33
2018-11-23T14:57:20.487Z,36.47
2018-11-23T14:59:48.791Z,35.80
2018-11-23T15:02:17.095Z,36.23
2018-11-23T15:04:45.344Z,36.00
2018-11-23T15:07:14.853Z,37.20
2018-11-23T15:09:41.970Z,36.60
2018-11-23T15:12:10.239Z,38.57
2018-11-23T15:14:38.471Z,38.03
2018-11-23T15:17:06.731Z,34.50
2018-11-23T15:19:35.011Z,37.20
2018-11-23T15:22:03.304Z,37.37
2018-11-23T15:24:31.616Z,37.20
2018-11-23T15:26:59.880Z,40.47
2018-11-23T15:29:28.136Z,37.80
2018-11-23T15:31:56.450Z,38.10
2018-11-23T15:34:24.691Z,38.70
2018-11-23T15:36:52.951Z,38.27
2018-11-23T15:39:21.214Z,37.53
2018-11-23T15:41:49.500Z,39.00
2018-11-23T15:44:18.893Z,38.90
2018-11-23T15:46:47.135Z,37.50
2018-11-23T15:49:15.410Z,38.90
2018-11-23T15:51:43.732Z,36.50
2018-11-23T15:54:12.007Z,38.77
2018-11-23T15:56:40.283Z,39.13
2018-11-23T15:59:08.539Z,38.00
2018-11-23T16:01:36.806Z,38.30
2018-11-23T16:04:05.134Z,39.33
2018-11-23T16:06:33.488Z,38.67
2018-11-23T16:09:02.471Z,40.20
2018-11-23T16:11:30.744Z,38.37
2018-11-23T16:13:59.007Z,38.90
2018-11-23T16:16:27.355Z,39.93
2018-11-23T16:18:55.649Z,38.60
2018-11-23T16:21:23.928Z,39.37
2018-11-23T16:23:52.385Z,39.20
2018-11-23T16:26:20.710Z,40.90
2018-11-23T16:28:48.971Z,41.20
2018-11-23T16:31:17.245Z,39.87
2018-11-23T16:33:45.538Z,41.07
2018-11-23T16:36:13.819Z,38.53
2018-11-23T16:38:42.220Z,37.63
2018-11-23T16:41:10.571Z,39.57
2018-11-23T16:43:38.834Z,41.27
2018-11-23T16:46:07.171Z,40.23
2018-11-23T16:48:35.421Z,41.27
2018-11-23T16:51:03.780Z,41.00
2018-11-23T16:53:32.172Z,41.63
2018-11-23T16:56:00.421Z,41.67
2018-11-23T16:58:28.678Z,42.27
2018-11-23T17:00:57.023Z,41.57
2018-11-23T17:03:25.279Z,43.00
2018-11-23T17:05:54.971Z,42.07
2018-11-23T17:08:23.242Z,43.20
2018-11-23T17:10:51.661Z,41.97
2018-11-23T17:13:19.983Z,43.93
2018-11-23T17:15:48.222Z,41.93
2018-11-23T17:18:17.048Z,43.73
2018-11-23T17:20:45.371Z,42.00
2018-11-23T17:23:13.935Z,43.67
2018-11-23T17:25:42.179Z,44.37
2018-11-23T17:28:11.326Z,42.00
2018-11-23T17:30:39.912Z,43.77
2018-11-23T17:33:08.240Z,45.47
2018-11-23T17:35:36.584Z,46.77
2018-11-23T17:38:05.069Z,43.00
2018-11-23T17:40:35.296Z,45.10
2018-11-23T17:43:03.583Z,44.83
2018-11-23T17:45:32.795Z,42.27
2018-11-23T17:48:01.329Z,44.93
2018-11-23T17:50:30.934Z,45.50
2018-11-23T17:52:59.443Z,47.13
2018-11-23T17:55:27.761Z,45.53
2018-11-23T17:57:56.368Z,46.90
2018-11-23T18:00:26.903Z,45.57
2018-11-23T18:02:58.835Z,45.23
2018-11-23T18:05:29.373Z,44.93
2018-11-23T18:08:07.601Z,45.57
2018-11-23T18:10:37.015Z,47.00
2018-11-23T18:13:07.120Z,46.83
2018-11-23T18:15:38.424Z,45.60
2018-11-23T18:18:08.420Z,45.67
2018-11-23T18:20:37.480Z,44.60
2018-11-23T18:23:07.941Z,46.30
2018-11-23T18:25:39.789Z,45.23
2018-11-23T18:28:08.692Z,44.13
2018-11-23T18:30:38.160Z,44.47
2018-11-23T18:33:09.283Z,43.13
2018-11-23T18:35:37.813Z,44.30
2018-11-23T18:38:06.231Z,43.97
2018-11-23T18:40:37.394Z,43.57
2018-11-23T18:43:02.748Z,45.53
2018-11-23T18:45:31.017Z,43.03
2018-11-23T18:47:59.466Z,42.23
2018-11-23T18:50:27.736Z,43.47
2018-11-23T18:52:56.131Z,44.07
2018-11-23T18:55:24.417Z,43.37
2018-11-23T18:57:56.387Z,41.83
2018-11-23T19:00:24.632Z,40.77
2018-11-23T19:02:53.566Z,40.03
2018-11-23T19:05:23.267Z,39.27
2018-11-23T19:07:51.610Z,40.53
2018-11-23T19:10:19.880Z,42.13
2018-11-23T19:12:48.135Z,40.67
2018-11-23T19:15:25.243Z,43.50
2018-11-23T19:17:46.363Z,42.50
2018-11-23T19:20:18.847Z,41.47
2018-11-23T19:22:51.074Z,42.30
2018-11-23T19:25:19.850Z,41.40
2018-11-23T19:27:54.426Z,41.57
2018-11-23T19:30:28.585Z,40.57
2018-11-23T19:32:52.835Z,41.03
2018-11-23T19:35:21.332Z,40.93
2018-11-23T19:37:49.616Z,42.17
2018-11-23T19:40:17.906Z,41.73
2018-11-23T19:42:46.219Z,42.07
2018-11-23T19:45:15.619Z,42.67
2018-11-23T19:47:43.917Z,41.60
2018-11-23T19:50:17.097Z,39.87
2018-11-23T19:52:45.478Z,36.70
2018-11-23T19:55:14.823Z,40.53
2018-11-23T19:57:43.304Z,40.03
2018-11-23T20:00:15.918Z,40.00
2018-11-23T20:02:45.174Z,38.60
2018-11-23T20:05:13.510Z,39.97
2018-11-23T20:07:41.838Z,40.33
2018-11-23T20:10:11.891Z,39.13
2018-11-23T20:12:40.184Z,37.30
2018-11-23T20:15:13.319Z,37.83
2018-11-23T20:17:41.703Z,37.73
2018-11-23T20:20:11.051Z,37.57
2018-11-23T20:22:39.608Z,38.53
2018-11-23T20:25:09.738Z,36.53
2018-11-23T20:27:38.248Z,38.80
2018-11-23T20:30:14.469Z,37.80
2018-11-23T20:32:43.035Z,36.60
2018-11-23T20:35:12.339Z,39.97
2018-11-23T20:37:40.597Z,40.93
2018-11-23T20:40:11.407Z,37.27
2018-11-23T20:42:39.676Z,37.70
2018-11-23T20:45:09.514Z,38.13
2018-11-23T20:47:37.747Z,37.67
2018-11-23T20:50:08.414Z,38.37
2018-11-23T20:52:36.728Z,39.90
2018-11-23T20:55:06.679Z,37.83
2018-11-23T20:57:34.970Z,37.23
2018-11-23T21:00:04.155Z,36.40
2018-11-23T21:02:32.431Z,38.17
2018-11-23T21:05:00.725Z,38.27
2018-11-23T21:07:28.983Z,36.67
2018-11-23T21:09:57.256Z,38.70
2018-11-23T21:12:25.527Z,36.73
2018-11-23T21:14:53.763Z,37.73
2018-11-23T21:17:22.056Z,37.73
2018-11-23T21:19:50.299Z,36.60
2018-11-23T21:22:18.560Z,35.07
2018-11-23T21:24:46.840Z,36.50
2018-11-23T21:27:15.163Z,37.40
2018-11-23T21:29:43.443Z,38.10
2018-11-23T21:32:11.783Z,37.90
2018-11-23T21:34:40.069Z,37.73
2018-11-23T21:37:08.299Z,36.37
2018-11-23T21:39:37.210Z,38.03
2018-11-23T21:42:06.752Z,34.73
2018-11-23T21:44:35.118Z,37.20
2018-11-23T21:47:03.406Z,35.07
2018-11-23T21:49:31.691Z,36.43
2018-11-23T21:51:59.952Z,36.27
2018-11-23T21:54:28.252Z,36.27
2018-11-23T21:56:56.497Z,36.13
2018-11-23T21:59:24.823Z,35.17
2018-11-23T22:01:53.047Z,35.20
2018-11-23T22:04:21.415Z,33.07
2018-11-23T22:06:55.447Z,33.60
2018-11-23T22:09:24.940Z,33.70
2018-11-23T22:11:53.195Z,34.00
2018-11-23T22:14:21.466Z,33.80
2018-11-23T22:16:49.731Z,34.80
2018-11-23T22:19:18.137Z,33.97
2018-11-23T22:21:46.446Z,33.40
2018-11-23T22:24:14.732Z,33.83
2018-11-23T22:26:42.991Z,33.63
2018-11-23T22:29:11.335Z,29.53
2018-11-23T22:31:39.596Z,32.40
2018-11-23T22:34:08.042Z,31.63
2018-11-23T22:36:36.294Z,32.63
2018-11-23T22:39:08.132Z,32.10
2018-11-23T22:41:36.688Z,32.00
2018-11-23T22:44:05.134Z,30.47
2018-11-23T22:46:33.399Z,30.80
2018-11-23T22:49:01.656Z,29.47
2018-11-23T22:51:29.887Z,30.53
2018-11-23T22:53:58.159Z,29.70
2018-11-23T22:56:26.451Z,30.20
2018-11-23T22:58:55.543Z,30.73
2018-11-23T23:01:23.016Z,30.80
2018-11-23T23:03:51.267Z,31.40
2018-11-23T23:06:19.504Z,31.03
2018-11-23T23:08:47.787Z,29.60
2018-11-23T23:11:16.054Z,29.47
2018-11-23T23:13:44.266Z,28.97
2018-11-23T23:16:12.548Z,28.80
2018-11-23T23:18:40.795Z,29.50
2018-11-23T23:21:09.071Z,28.57
2018-11-23T23:23:37.303Z,28.80
2018-11-23T23:26:05.595Z,29.97
2018-11-23T23:28:33.893Z,28.50
2018-11-23T23:31:02.352Z,29.73
2018-11-23T23:33:30.614Z,29.50
2018-11-23T23:35:58.883Z,28.70
2018-11-23T23:38:27.202Z,28.03
2018-11-23T23:40:55.460Z,29.20
2018-11-23T23:43:23.711Z,29.67
2018-11-23T23:45:51.972Z,29.57
2018-11-23T23:48:20.399Z,27.13
2018-11-23T23:50:48.659Z,27.43
2018-11-23T23:53:16.911Z,29.90
2018-11-23T23:55:45.207Z,28.43
2018-11-23T23:58:13.483Z,27.53
